sensor_id;sensor_type;location;lat;lon;timestamp;temperature;humidity
65573;SHT30;52214;50.940;13.996;2023-02-01T00:01:34;19.04;73.12
65573;SHT30;52214;50.940;13.996;2023-02-01T00:03:59;19.07;73.24
65573;SHT30;52214;50.940;13.996;2023-02-01T00:06:25;19.08;73.22
65573;SHT30;52214;50.940;13.996;2023-02-01T00:08:53;19.07;73.36
65573;SHT30;52214;50.940;13.996;2023-02-01T00:11:20;19.07;73.35
65573;SHT30;52214;50.940;13.996;2023-02-01T00:13:45;19.07;73.47
65573;SHT30;52214;50.940;13.996;2023-02-01T00:16:14;19.03;73.71
65573;SHT30;52214;50.940;13.996;2023-02-01T00:18:43;19.15;73.55
65573;SHT30;52214;50.940;13.996;2023-02-01T00:21:17;19.32;73.25
65573;SHT30;52214;50.940;13.996;2023-02-01T00:23:43;19.35;73.56
65573;SHT30;52214;50.940;13.996;2023-02-01T00:26:14;19.35;73.70
65573;SHT30;52214;50.940;13.996;2023-02-01T00:28:40;19.35;74.06
65573;SHT30;52214;50.940;13.996;2023-02-01T00:31:06;19.35;74.35
65573;SHT30;52214;50.940;13.996;2023-02-01T00:33:32;19.32;74.31
65573;SHT30;52214;50.940;13.996;2023-02-01T00:36:05;19.28;74.20
65573;SHT30;52214;50.940;13.996;2023-02-01T00:38:32;19.22;74.15
65573;SHT30;52214;50.940;13.996;2023-02-01T00:41:04;19.17;74.10
65573;SHT30;52214;50.940;13.996;2023-02-01T00:43:31;19.14;73.99
65573;SHT30;52214;50.940;13.996;2023-02-01T00:45:57;19.15;73.94
65573;SHT30;52214;50.940;13.996;2023-02-01T00:48:22;19.14;73.89
65573;SHT30;52214;50.940;13.996;2023-02-01T00:50:47;19.14;73.82
65573;SHT30;52214;50.940;13.996;2023-02-01T00:53:12;19.10;73.76
65573;SHT30;52214;50.940;13.996;2023-02-01T00:55:37;19.11;73.74
65573;SHT30;52214;50.940;13.996;2023-02-01T00:58:03;19.12;73.70
65573;SHT30;52214;50.940;13.996;2023-02-01T01:00:32;19.12;73.57
65573;SHT30;52214;50.940;13.996;2023-02-01T01:02:57;19.12;73.57
65573;SHT30;52214;50.940;13.996;2023-02-01T01:05:23;19.07;73.60
65573;SHT30;52214;50.940;13.996;2023-02-01T01:07:48;19.07;73.61
65573;SHT30;52214;50.940;13.996;2023-02-01T01:10:14;19.07;73.58
65573;SHT30;52214;50.940;13.996;2023-02-01T01:12:39;19.06;73.60
65573;SHT30;52214;50.940;13.996;2023-02-01T01:15:06;19.04;73.65
65573;SHT30;52214;50.940;13.996;2023-02-01T01:17:31;19.03;73.74
65573;SHT30;52214;50.940;13.996;2023-02-01T01:19:57;19.03;73.68
65573;SHT30;52214;50.940;13.996;2023-02-01T01:22:22;18.99;73.67
65573;SHT30;52214;50.940;13.996;2023-02-01T01:24:47;18.99;73.74
65573;SHT30;52214;50.940;13.996;2023-02-01T01:27:12;19.00;73.78
65573;SHT30;52214;50.940;13.996;2023-02-01T01:29:37;18.96;73.74
65573;SHT30;52214;50.940;13.996;2023-02-01T01:32:03;18.96;73.77
65573;SHT30;52214;50.940;13.996;2023-02-01T01:34:28;18.96;73.76
65573;SHT30;52214;50.940;13.996;2023-02-01T01:36:53;18.91;73.73
65573;SHT30;52214;50.940;13.996;2023-02-01T01:39:19;18.94;73.73
65573;SHT30;52214;50.940;13.996;2023-02-01T01:41:44;18.96;73.71
65573;SHT30;52214;50.940;13.996;2023-02-01T01:47:12;18.93;73.64
65573;SHT30;52214;50.940;13.996;2023-02-01T01:49:39;18.91;73.65
65573;SHT30;52214;50.940;13.996;2023-02-01T01:52:05;18.99;73.54
65573;SHT30;52214;50.940;13.996;2023-02-01T01:54:38;19.07;73.65
65573;SHT30;52214;50.940;13.996;2023-02-01T01:57:08;19.17;73.59
65573;SHT30;52214;50.940;13.996;2023-02-01T01:59:36;19.22;73.44
65573;SHT30;52214;50.940;13.996;2023-02-01T02:02:02;19.24;73.55
65573;SHT30;52214;50.940;13.996;2023-02-01T02:04:28;19.21;73.56
65573;SHT30;52214;50.940;13.996;2023-02-01T02:07:04;19.20;73.34
65573;SHT30;52214;50.940;13.996;2023-02-01T02:09:30;19.21;73.08
65573;SHT30;52214;50.940;13.996;2023-02-01T02:11:55;19.18;73.06
65573;SHT30;52214;50.940;13.996;2023-02-01T02:14:22;19.17;73.05
65573;SHT30;52214;50.940;13.996;2023-02-01T02:28:24;19.10;72.88
65573;SHT30;52214;50.940;13.996;2023-02-01T02:31:12;19.06;72.84
65573;SHT30;52214;50.940;13.996;2023-02-01T02:34:14;19.04;72.89
65573;SHT30;52214;50.940;13.996;2023-02-01T02:39:28;19.03;72.77
65573;SHT30;52214;50.940;13.996;2023-02-01T02:42:14;19.00;72.76
65573;SHT30;52214;50.940;13.996;2023-02-01T02:48:12;18.97;72.70
65573;SHT30;52214;50.940;13.996;2023-02-01T02:50:45;18.94;72.71
65573;SHT30;52214;50.940;13.996;2023-02-01T02:53:35;18.93;72.66
65573;SHT30;52214;50.940;13.996;2023-02-01T02:56:21;18.93;72.60
65573;SHT30;52214;50.940;13.996;2023-02-01T02:59:07;18.91;72.59
65573;SHT30;52214;50.940;13.996;2023-02-01T03:01:52;18.89;72.61
65573;SHT30;52214;50.940;13.996;2023-02-01T03:04:37;18.86;72.58
65573;SHT30;52214;50.940;13.996;2023-02-01T03:10:41;18.86;72.57
65573;SHT30;52214;50.940;13.996;2023-02-01T03:13:12;18.83;72.50
65573;SHT30;52214;50.940;13.996;2023-02-01T03:15:53;18.84;72.51
65573;SHT30;52214;50.940;13.996;2023-02-01T03:18:41;18.80;72.49
65573;SHT30;52214;50.940;13.996;2023-02-01T03:21:16;18.82;72.48
65573;SHT30;52214;50.940;13.996;2023-02-01T03:23:43;18.83;72.41
65573;SHT30;52214;50.940;13.996;2023-02-01T03:26:13;18.82;72.38
65573;SHT30;52214;50.940;13.996;2023-02-01T03:28:43;18.82;72.39
65573;SHT30;52214;50.940;13.996;2023-02-01T03:31:10;18.83;72.34
65573;SHT30;52214;50.940;13.996;2023-02-01T03:33:36;18.82;72.31
65573;SHT30;52214;50.940;13.996;2023-02-01T03:36:56;18.83;72.27
65573;SHT30;52214;50.940;13.996;2023-02-01T03:39:07;18.84;72.27
65573;SHT30;52214;50.940;13.996;2023-02-01T03:41:38;18.86;72.24
65573;SHT30;52214;50.940;13.996;2023-02-01T03:44:19;18.84;72.25
65573;SHT30;52214;50.940;13.996;2023-02-01T03:46:52;18.87;72.22
65573;SHT30;52214;50.940;13.996;2023-02-01T03:49:36;18.87;72.23
65573;SHT30;52214;50.940;13.996;2023-02-01T03:52:05;18.87;72.21
65573;SHT30;52214;50.940;13.996;2023-02-01T03:54:32;18.90;72.18
65573;SHT30;52214;50.940;13.996;2023-02-01T03:57:00;18.91;72.16
65573;SHT30;52214;50.940;13.996;2023-02-01T03:59:26;18.93;72.14
65573;SHT30;52214;50.940;13.996;2023-02-01T04:01:52;18.91;72.14
65573;SHT30;52214;50.940;13.996;2023-02-01T04:04:18;18.91;72.16
65573;SHT30;52214;50.940;13.996;2023-02-01T04:06:47;18.93;72.11
65573;SHT30;52214;50.940;13.996;2023-02-01T04:09:12;18.90;72.09
65573;SHT30;52214;50.940;13.996;2023-02-01T04:11:38;18.90;72.08
65573;SHT30;52214;50.940;13.996;2023-02-01T04:14:03;18.93;72.03
65573;SHT30;52214;50.940;13.996;2023-02-01T04:16:30;18.91;72.06
65573;SHT30;52214;50.940;13.996;2023-02-01T04:18:56;18.91;72.06
65573;SHT30;52214;50.940;13.996;2023-02-01T04:21:22;18.90;72.03
65573;SHT30;52214;50.940;13.996;2023-02-01T04:23:47;18.93;72.06
65573;SHT30;52214;50.940;13.996;2023-02-01T04:26:13;18.94;72.05
65573;SHT30;52214;50.940;13.996;2023-02-01T04:28:38;18.93;72.04
65573;SHT30;52214;50.940;13.996;2023-02-01T04:31:03;18.94;72.03
65573;SHT30;52214;50.940;13.996;2023-02-01T04:33:28;18.94;72.04
65573;SHT30;52214;50.940;13.996;2023-02-01T04:35:54;18.94;72.07
65573;SHT30;52214;50.940;13.996;2023-02-01T04:38:19;18.91;72.03
65573;SHT30;52214;50.940;13.996;2023-02-01T04:40:46;18.93;72.06
65573;SHT30;52214;50.940;13.996;2023-02-01T04:43:12;18.91;72.08
65573;SHT30;52214;50.940;13.996;2023-02-01T04:45:37;18.93;72.06
65573;SHT30;52214;50.940;13.996;2023-02-01T04:48:02;18.93;72.08
65573;SHT30;52214;50.940;13.996;2023-02-01T04:50:28;18.93;72.06
65573;SHT30;52214;50.940;13.996;2023-02-01T04:52:53;18.91;72.11
65573;SHT30;52214;50.940;13.996;2023-02-01T04:55:18;18.94;72.05
65573;SHT30;52214;50.940;13.996;2023-02-01T04:57:43;18.94;72.09
65573;SHT30;52214;50.940;13.996;2023-02-01T05:00:09;18.94;72.03
65573;SHT30;52214;50.940;13.996;2023-02-01T05:02:35;18.91;72.03
65573;SHT30;52214;50.940;13.996;2023-02-01T05:05:01;18.96;72.01
65573;SHT30;52214;50.940;13.996;2023-02-01T05:07:27;18.91;72.01
65573;SHT30;52214;50.940;13.996;2023-02-01T05:09:52;18.93;72.04
65573;SHT30;52214;50.940;13.996;2023-02-01T05:12:17;18.91;72.01
65573;SHT30;52214;50.940;13.996;2023-02-01T05:15:01;18.91;72.06
65573;SHT30;52214;50.940;13.996;2023-02-01T05:17:26;18.91;72.02
65573;SHT30;52214;50.940;13.996;2023-02-01T05:19:51;18.91;72.00
65573;SHT30;52214;50.940;13.996;2023-02-01T05:22:16;18.93;72.01
65573;SHT30;52214;50.940;13.996;2023-02-01T05:24:42;18.90;72.03
65573;SHT30;52214;50.940;13.996;2023-02-01T05:27:07;18.91;71.99
65573;SHT30;52214;50.940;13.996;2023-02-01T05:29:33;18.94;71.98
65573;SHT30;52214;50.940;13.996;2023-02-01T05:31:58;18.93;71.98
65573;SHT30;52214;50.940;13.996;2023-02-01T05:34:23;18.93;71.97
65573;SHT30;52214;50.940;13.996;2023-02-01T05:36:48;18.96;71.97
65573;SHT30;52214;50.940;13.996;2023-02-01T05:39:14;18.93;71.94
65573;SHT30;52214;50.940;13.996;2023-02-01T05:41:39;18.94;71.98
65573;SHT30;52214;50.940;13.996;2023-02-01T05:44:04;18.94;71.94
65573;SHT30;52214;50.940;13.996;2023-02-01T05:46:32;18.94;71.92
65573;SHT30;52214;50.940;13.996;2023-02-01T05:48:57;18.94;71.91
65573;SHT30;52214;50.940;13.996;2023-02-01T05:51:22;18.97;71.88
65573;SHT30;52214;50.940;13.996;2023-02-01T05:53:47;18.94;71.87
65573;SHT30;52214;50.940;13.996;2023-02-01T05:56:13;18.97;71.88
65573;SHT30;52214;50.940;13.996;2023-02-01T05:58:38;18.96;71.84
65573;SHT30;52214;50.940;13.996;2023-02-01T06:01:03;18.96;71.84
65573;SHT30;52214;50.940;13.996;2023-02-01T06:03:29;18.94;71.86
65573;SHT30;52214;50.940;13.996;2023-02-01T06:05:55;18.96;71.87
65573;SHT30;52214;50.940;13.996;2023-02-01T06:08:20;18.96;71.87
65573;SHT30;52214;50.940;13.996;2023-02-01T06:10:45;18.97;71.90
65573;SHT30;52214;50.940;13.996;2023-02-01T06:13:10;18.97;71.86
65573;SHT30;52214;50.940;13.996;2023-02-01T06:15:36;18.96;71.89
65573;SHT30;52214;50.940;13.996;2023-02-01T06:18:03;18.96;71.84
65573;SHT30;52214;50.940;13.996;2023-02-01T06:20:29;18.96;71.89
65573;SHT30;52214;50.940;13.996;2023-02-01T06:22:54;18.94;71.90
65573;SHT30;52214;50.940;13.996;2023-02-01T06:25:19;18.94;71.88
65573;SHT30;52214;50.940;13.996;2023-02-01T06:27:46;18.96;71.89
65573;SHT30;52214;50.940;13.996;2023-02-01T06:30:12;18.96;71.88
65573;SHT30;52214;50.940;13.996;2023-02-01T06:32:39;18.97;71.86
65573;SHT30;52214;50.940;13.996;2023-02-01T06:35:06;18.96;71.93
65573;SHT30;52214;50.940;13.996;2023-02-01T06:37:32;18.94;71.91
65573;SHT30;52214;50.940;13.996;2023-02-01T06:39:57;18.94;71.91
65573;SHT30;52214;50.940;13.996;2023-02-01T06:42:23;18.99;71.97
65573;SHT30;52214;50.940;13.996;2023-02-01T06:44:48;18.96;71.96
65573;SHT30;52214;50.940;13.996;2023-02-01T06:47:14;18.96;71.97
65573;SHT30;52214;50.940;13.996;2023-02-01T06:49:39;18.96;71.98
65573;SHT30;52214;50.940;13.996;2023-02-01T06:52:05;18.96;71.98
65573;SHT30;52214;50.940;13.996;2023-02-01T06:54:30;18.96;71.98
65573;SHT30;52214;50.940;13.996;2023-02-01T06:56:58;18.96;72.00
65573;SHT30;52214;50.940;13.996;2023-02-01T06:59:23;18.94;71.99
65573;SHT30;52214;50.940;13.996;2023-02-01T07:01:49;18.93;72.01
65573;SHT30;52214;50.940;13.996;2023-02-01T07:04:14;18.94;72.00
65573;SHT30;52214;50.940;13.996;2023-02-01T07:06:39;18.94;71.99
65573;SHT30;52214;50.940;13.996;2023-02-01T07:09:05;18.94;71.99
65573;SHT30;52214;50.940;13.996;2023-02-01T07:11:31;18.93;71.98
65573;SHT30;52214;50.940;13.996;2023-02-01T07:13:57;18.91;71.97
65573;SHT30;52214;50.940;13.996;2023-02-01T07:16:22;18.91;71.96
65573;SHT30;52214;50.940;13.996;2023-02-01T07:18:49;18.93;72.00
65573;SHT30;52214;50.940;13.996;2023-02-01T07:21:15;18.94;71.96
65573;SHT30;52214;50.940;13.996;2023-02-01T07:23:40;18.96;71.93
65573;SHT30;52214;50.940;13.996;2023-02-01T07:26:07;18.94;71.90
65573;SHT30;52214;50.940;13.996;2023-02-01T07:28:34;18.94;71.96
65573;SHT30;52214;50.940;13.996;2023-02-01T07:31:14;18.97;71.96
65573;SHT30;52214;50.940;13.996;2023-02-01T07:33:40;18.97;71.93
65573;SHT30;52214;50.940;13.996;2023-02-01T07:36:08;18.94;71.95
65573;SHT30;52214;50.940;13.996;2023-02-01T07:38:35;18.94;71.91
65573;SHT30;52214;50.940;13.996;2023-02-01T07:41:02;18.97;71.89
65573;SHT30;52214;50.940;13.996;2023-02-01T07:43:28;18.99;71.87
65573;SHT30;52214;50.940;13.996;2023-02-01T07:45:54;18.96;71.90
65573;SHT30;52214;50.940;13.996;2023-02-01T07:48:21;18.97;71.90
65573;SHT30;52214;50.940;13.996;2023-02-01T07:50:47;18.99;71.89
65573;SHT30;52214;50.940;13.996;2023-02-01T07:53:12;18.97;71.88
65573;SHT30;52214;50.940;13.996;2023-02-01T07:55:41;18.97;71.84
65573;SHT30;52214;50.940;13.996;2023-02-01T07:58:06;18.97;71.84
65573;SHT30;52214;50.940;13.996;2023-02-01T08:00:31;19.00;71.87
65573;SHT30;52214;50.940;13.996;2023-02-01T08:03:15;18.97;71.89
65573;SHT30;52214;50.940;13.996;2023-02-01T08:05:41;18.96;71.87
65573;SHT30;52214;50.940;13.996;2023-02-01T08:08:06;18.97;71.90
65573;SHT30;52214;50.940;13.996;2023-02-01T08:10:32;18.93;71.89
65573;SHT30;52214;50.940;13.996;2023-02-01T08:12:59;18.94;71.85
65573;SHT30;52214;50.940;13.996;2023-02-01T08:15:25;18.96;71.86
65573;SHT30;52214;50.940;13.996;2023-02-01T08:17:51;18.94;71.90
65573;SHT30;52214;50.940;13.996;2023-02-01T08:20:17;18.94;71.93
65573;SHT30;52214;50.940;13.996;2023-02-01T08:22:43;18.93;71.93
65573;SHT30;52214;50.940;13.996;2023-02-01T08:25:09;18.94;71.96
65573;SHT30;52214;50.940;13.996;2023-02-01T08:27:35;18.96;71.98
65573;SHT30;52214;50.940;13.996;2023-02-01T08:30:01;18.97;71.97
65573;SHT30;52214;50.940;13.996;2023-02-01T08:32:26;18.94;71.99
65573;SHT30;52214;50.940;13.996;2023-02-01T08:34:53;18.97;72.00
65573;SHT30;52214;50.940;13.996;2023-02-01T08:37:18;18.93;72.01
65573;SHT30;52214;50.940;13.996;2023-02-01T08:39:43;18.94;71.98
65573;SHT30;52214;50.940;13.996;2023-02-01T08:42:09;18.96;71.95
65573;SHT30;52214;50.940;13.996;2023-02-01T08:44:53;18.96;71.99
65573;SHT30;52214;50.940;13.996;2023-02-01T08:47:19;18.97;71.98
65573;SHT30;52214;50.940;13.996;2023-02-01T08:49:44;18.96;72.01
65573;SHT30;52214;50.940;13.996;2023-02-01T08:52:09;18.97;71.98
65573;SHT30;52214;50.940;13.996;2023-02-01T08:54:34;18.97;71.99
65573;SHT30;52214;50.940;13.996;2023-02-01T08:57:00;18.96;71.97
65573;SHT30;52214;50.940;13.996;2023-02-01T08:59:25;18.94;71.99
65573;SHT30;52214;50.940;13.996;2023-02-01T09:01:50;18.94;71.96
65573;SHT30;52214;50.940;13.996;2023-02-01T09:04:15;18.96;72.00
65573;SHT30;52214;50.940;13.996;2023-02-01T09:06:41;18.97;71.97
65573;SHT30;52214;50.940;13.996;2023-02-01T09:09:06;18.96;71.98
65573;SHT30;52214;50.940;13.996;2023-02-01T09:11:31;18.97;71.98
65573;SHT30;52214;50.940;13.996;2023-02-01T09:13:57;18.99;71.95
65573;SHT30;52214;50.940;13.996;2023-02-01T09:16:22;18.96;71.96
65573;SHT30;52214;50.940;13.996;2023-02-01T09:18:48;18.97;71.93
65573;SHT30;52214;50.940;13.996;2023-02-01T09:21:13;19.01;71.91
65573;SHT30;52214;50.940;13.996;2023-02-01T09:23:38;19.00;71.90
65573;SHT30;52214;50.940;13.996;2023-02-01T09:26:04;18.97;71.91
65573;SHT30;52214;50.940;13.996;2023-02-01T09:28:30;19.01;71.93
65573;SHT30;52214;50.940;13.996;2023-02-01T09:30:59;18.99;71.89
65573;SHT30;52214;50.940;13.996;2023-02-01T09:33:26;19.01;71.87
65573;SHT30;52214;50.940;13.996;2023-02-01T09:35:57;19.01;71.92
65573;SHT30;52214;50.940;13.996;2023-02-01T09:38:22;18.99;71.87
65573;SHT30;52214;50.940;13.996;2023-02-01T09:40:48;19.00;71.91
65573;SHT30;52214;50.940;13.996;2023-02-01T09:43:21;19.01;71.88
65573;SHT30;52214;50.940;13.996;2023-02-01T09:46:17;19.01;71.87
65573;SHT30;52214;50.940;13.996;2023-02-01T09:48:44;19.01;71.88
65573;SHT30;52214;50.940;13.996;2023-02-01T09:51:15;18.99;71.84
65573;SHT30;52214;50.940;13.996;2023-02-01T09:53:44;19.01;71.86
65573;SHT30;52214;50.940;13.996;2023-02-01T09:56:12;19.01;71.85
65573;SHT30;52214;50.940;13.996;2023-02-01T09:58:45;19.01;71.85
65573;SHT30;52214;50.940;13.996;2023-02-01T10:01:18;19.01;71.87
65573;SHT30;52214;50.940;13.996;2023-02-01T10:03:44;19.03;71.84
65573;SHT30;52214;50.940;13.996;2023-02-01T10:12:36;19.03;71.85
65573;SHT30;52214;50.940;13.996;2023-02-01T10:15:29;19.01;71.84
65573;SHT30;52214;50.940;13.996;2023-02-01T10:21:04;19.01;71.89
65573;SHT30;52214;50.940;13.996;2023-02-01T10:24:02;19.01;71.88
65573;SHT30;52214;50.940;13.996;2023-02-01T10:26:33;19.03;71.84
65573;SHT30;52214;50.940;13.996;2023-02-01T10:29:03;19.03;71.85
65573;SHT30;52214;50.940;13.996;2023-02-01T10:31:31;19.01;71.86
65573;SHT30;52214;50.940;13.996;2023-02-01T10:34:00;19.01;71.85
65573;SHT30;52214;50.940;13.996;2023-02-01T10:36:34;19.00;71.88
65573;SHT30;52214;50.940;13.996;2023-02-01T10:39:04;19.00;71.87
65573;SHT30;52214;50.940;13.996;2023-02-01T10:41:34;19.00;71.92
65573;SHT30;52214;50.940;13.996;2023-02-01T10:44:03;19.00;71.90
65573;SHT30;52214;50.940;13.996;2023-02-01T10:46:29;19.01;71.87
65573;SHT30;52214;50.940;13.996;2023-02-01T10:48:55;19.00;71.87
65573;SHT30;52214;50.940;13.996;2023-02-01T10:51:24;18.96;71.52
65573;SHT30;52214;50.940;13.996;2023-02-01T10:54:17;18.94;71.12
65573;SHT30;52214;50.940;13.996;2023-02-01T10:56:44;18.84;70.74
65573;SHT30;52214;50.940;13.996;2023-02-01T10:59:18;18.87;70.22
65573;SHT30;52214;50.940;13.996;2023-02-01T11:01:46;18.89;69.95
65573;SHT30;52214;50.940;13.996;2023-02-01T11:04:19;18.83;69.59
65573;SHT30;52214;50.940;13.996;2023-02-01T11:06:48;18.77;69.40
65573;SHT30;52214;50.940;13.996;2023-02-01T11:09:19;18.70;68.68
65573;SHT30;52214;50.940;13.996;2023-02-01T11:16:53;18.18;62.89
65573;SHT30;52214;50.940;13.996;2023-02-01T11:19:19;18.38;67.26
65573;SHT30;52214;50.940;13.996;2023-02-01T11:21:49;18.34;65.14
65573;SHT30;52214;50.940;13.996;2023-02-01T11:24:22;18.38;66.21
65573;SHT30;52214;50.940;13.996;2023-02-01T11:26:48;18.45;65.80
65573;SHT30;52214;50.940;13.996;2023-02-01T11:29:17;18.48;65.76
65573;SHT30;52214;50.940;13.996;2023-02-01T11:31:45;18.49;64.74
65573;SHT30;52214;50.940;13.996;2023-02-01T11:34:24;18.52;64.08
65573;SHT30;52214;50.940;13.996;2023-02-01T11:36:50;18.56;64.19
65573;SHT30;52214;50.940;13.996;2023-02-01T11:39:24;18.62;64.33
65573;SHT30;52214;50.940;13.996;2023-02-01T11:42:05;18.60;64.42
65573;SHT30;52214;50.940;13.996;2023-02-01T11:44:36;18.63;64.49
65573;SHT30;52214;50.940;13.996;2023-02-01T11:47:22;18.63;64.74
65573;SHT30;52214;50.940;13.996;2023-02-01T11:49:49;18.66;64.89
65573;SHT30;52214;50.940;13.996;2023-02-01T11:58:54;18.70;65.42
65573;SHT30;52214;50.940;13.996;2023-02-01T12:01:49;18.72;65.53
65573;SHT30;52214;50.940;13.996;2023-02-01T12:04:44;18.73;65.74
65573;SHT30;52214;50.940;13.996;2023-02-01T12:10:07;18.74;65.97
65573;SHT30;52214;50.940;13.996;2023-02-01T12:12:51;18.77;66.08
65573;SHT30;52214;50.940;13.996;2023-02-01T12:15:31;18.79;66.17
65573;SHT30;52214;50.940;13.996;2023-02-01T12:21:14;18.79;66.39
65573;SHT30;52214;50.940;13.996;2023-02-01T12:23:59;18.79;66.57
65573;SHT30;52214;50.940;13.996;2023-02-01T12:26:40;18.80;66.65
65573;SHT30;52214;50.940;13.996;2023-02-01T12:29:33;18.82;66.75
65573;SHT30;52214;50.940;13.996;2023-02-01T12:32:08;18.82;66.79
65573;SHT30;52214;50.940;13.996;2023-02-01T12:35:02;18.80;66.95
65573;SHT30;52214;50.940;13.996;2023-02-01T12:40:45;18.83;67.10
65573;SHT30;52214;50.940;13.996;2023-02-01T12:43:20;18.86;67.13
65573;SHT30;52214;50.940;13.996;2023-02-01T12:45:59;18.82;67.26
65573;SHT30;52214;50.940;13.996;2023-02-01T12:48:39;18.80;67.29
65573;SHT30;52214;50.940;13.996;2023-02-01T12:51:13;18.80;67.34
65573;SHT30;52214;50.940;13.996;2023-02-01T12:54:03;18.80;67.39
65573;SHT30;52214;50.940;13.996;2023-02-01T12:56:42;18.82;67.50
65573;SHT30;52214;50.940;13.996;2023-02-01T12:59:19;18.80;67.51
65573;SHT30;52214;50.940;13.996;2023-02-01T13:01:50;18.82;67.56
65573;SHT30;52214;50.940;13.996;2023-02-01T13:04:33;18.82;67.60
65573;SHT30;52214;50.940;13.996;2023-02-01T13:07:07;18.82;67.67
65573;SHT30;52214;50.940;13.996;2023-02-01T13:09:40;18.82;67.70
65573;SHT30;52214;50.940;13.996;2023-02-01T13:12:15;18.84;67.74
65573;SHT30;52214;50.940;13.996;2023-02-01T13:14:46;18.86;67.74
65573;SHT30;52214;50.940;13.996;2023-02-01T13:17:19;18.84;67.85
65573;SHT30;52214;50.940;13.996;2023-02-01T13:19:53;18.83;67.88
65573;SHT30;52214;50.940;13.996;2023-02-01T13:22:23;18.89;67.92
65573;SHT30;52214;50.940;13.996;2023-02-01T13:25:13;18.87;67.89
65573;SHT30;52214;50.940;13.996;2023-02-01T13:27:39;18.89;67.95
65573;SHT30;52214;50.940;13.996;2023-02-01T13:30:11;18.89;67.94
65573;SHT30;52214;50.940;13.996;2023-02-01T13:33:23;18.89;67.97
65573;SHT30;52214;50.940;13.996;2023-02-01T13:35:55;18.90;68.03
65573;SHT30;52214;50.940;13.996;2023-02-01T13:38:54;18.91;68.04
65573;SHT30;52214;50.940;13.996;2023-02-01T13:41:31;18.91;68.10
65573;SHT30;52214;50.940;13.996;2023-02-01T13:44:08;18.93;68.12
65573;SHT30;52214;50.940;13.996;2023-02-01T13:46:40;18.91;68.17
65573;SHT30;52214;50.940;13.996;2023-02-01T13:49:19;18.91;68.19
65573;SHT30;52214;50.940;13.996;2023-02-01T13:51:48;18.93;68.21
65573;SHT30;52214;50.940;13.996;2023-02-01T13:54:43;18.90;68.27
65573;SHT30;52214;50.940;13.996;2023-02-01T14:00:09;18.89;68.30
65573;SHT30;52214;50.940;13.996;2023-02-01T14:13:28;18.90;68.47
65573;SHT30;52214;50.940;13.996;2023-02-01T14:21:18;18.89;68.53
65573;SHT30;52214;50.940;13.996;2023-02-01T14:23:47;18.90;68.58
65573;SHT30;52214;50.940;13.996;2023-02-01T14:34:39;18.91;68.70
65573;SHT30;52214;50.940;13.996;2023-02-01T14:37:11;18.89;68.73
65573;SHT30;52214;50.940;13.996;2023-02-01T14:42:19;18.93;68.73
65573;SHT30;52214;50.940;13.996;2023-02-01T14:44:46;18.93;68.74
65573;SHT30;52214;50.940;13.996;2023-02-01T14:49:55;18.90;68.82
65573;SHT30;52214;50.940;13.996;2023-02-01T14:52:28;18.93;68.81
65573;SHT30;52214;50.940;13.996;2023-02-01T14:54:56;18.94;68.84
65573;SHT30;52214;50.940;13.996;2023-02-01T14:57:26;18.93;68.85
65573;SHT30;52214;50.940;13.996;2023-02-01T15:00:00;18.93;68.87
65573;SHT30;52214;50.940;13.996;2023-02-01T15:02:30;18.96;68.90
65573;SHT30;52214;50.940;13.996;2023-02-01T15:04:58;18.94;68.87
65573;SHT30;52214;50.940;13.996;2023-02-01T15:07:25;18.93;68.89
65573;SHT30;52214;50.940;13.996;2023-02-01T15:09:52;18.91;68.90
65573;SHT30;52214;50.940;13.996;2023-02-01T15:12:23;18.91;68.89
65573;SHT30;52214;50.940;13.996;2023-02-01T15:15:13;18.96;68.90
65573;SHT30;52214;50.940;13.996;2023-02-01T15:17:40;18.93;68.93
65573;SHT30;52214;50.940;13.996;2023-02-01T15:20:14;18.93;68.93
65573;SHT30;52214;50.940;13.996;2023-02-01T15:22:40;18.94;68.96
65573;SHT30;52214;50.940;13.996;2023-02-01T15:25:19;18.96;68.96
65573;SHT30;52214;50.940;13.996;2023-02-01T15:27:45;18.93;68.99
65573;SHT30;52214;50.940;13.996;2023-02-01T15:30:22;18.97;68.96
65573;SHT30;52214;50.940;13.996;2023-02-01T15:32:49;18.99;68.93
65573;SHT30;52214;50.940;13.996;2023-02-01T15:35:40;18.97;68.95
65573;SHT30;52214;50.940;13.996;2023-02-01T15:41:20;18.97;69.01
65573;SHT30;52214;50.940;13.996;2023-02-01T15:44:04;18.96;69.01
65573;SHT30;52214;50.940;13.996;2023-02-01T15:46:39;18.99;69.01
65573;SHT30;52214;50.940;13.996;2023-02-01T15:51:44;18.99;69.04
65573;SHT30;52214;50.940;13.996;2023-02-01T15:54:18;18.99;69.04
65573;SHT30;52214;50.940;13.996;2023-02-01T15:56:49;18.97;69.07
65573;SHT30;52214;50.940;13.996;2023-02-01T15:59:19;19.00;69.08
65573;SHT30;52214;50.940;13.996;2023-02-01T16:01:46;18.97;69.11
65573;SHT30;52214;50.940;13.996;2023-02-01T16:06:55;18.96;69.13
65573;SHT30;52214;50.940;13.996;2023-02-01T16:09:22;18.96;69.13
65573;SHT30;52214;50.940;13.996;2023-02-01T16:14:20;18.97;69.17
65573;SHT30;52214;50.940;13.996;2023-02-01T16:16:46;18.96;69.18
65573;SHT30;52214;50.940;13.996;2023-02-01T16:19:14;18.99;69.22
65573;SHT30;52214;50.940;13.996;2023-02-01T16:21:42;18.94;69.21
65573;SHT30;52214;50.940;13.996;2023-02-01T16:24:07;18.96;69.27
65573;SHT30;52214;50.940;13.996;2023-02-01T16:26:41;18.96;69.26
65573;SHT30;52214;50.940;13.996;2023-02-01T16:29:07;18.97;69.25
65573;SHT30;52214;50.940;13.996;2023-02-01T16:31:36;18.96;69.27
65573;SHT30;52214;50.940;13.996;2023-02-01T16:34:02;18.96;69.30
65573;SHT30;52214;50.940;13.996;2023-02-01T16:36:30;18.99;69.25
65573;SHT30;52214;50.940;13.996;2023-02-01T16:38:58;18.96;69.30
65573;SHT30;52214;50.940;13.996;2023-02-01T16:41:26;18.97;69.32
65573;SHT30;52214;50.940;13.996;2023-02-01T16:43:54;19.00;69.29
65573;SHT30;52214;50.940;13.996;2023-02-01T16:46:24;18.99;69.36
65573;SHT30;52214;50.940;13.996;2023-02-01T16:48:56;18.99;69.40
65573;SHT30;52214;50.940;13.996;2023-02-01T16:51:23;18.99;69.35
65573;SHT30;52214;50.940;13.996;2023-02-01T16:53:49;19.00;69.39
65573;SHT30;52214;50.940;13.996;2023-02-01T16:56:17;19.01;69.38
65573;SHT30;52214;50.940;13.996;2023-02-01T16:58:46;18.99;69.37
65573;SHT30;52214;50.940;13.996;2023-02-01T17:01:13;19.01;69.39
65573;SHT30;52214;50.940;13.996;2023-02-01T17:03:39;19.00;69.41
65573;SHT30;52214;50.940;13.996;2023-02-01T17:06:07;18.99;69.43
65573;SHT30;52214;50.940;13.996;2023-02-01T17:08:35;19.01;69.37
65573;SHT30;52214;50.940;13.996;2023-02-01T17:11:02;18.99;69.43